createdAt,value
2022-10-23T00:04:48.028Z,4.70
2022-10-23T00:09:53.104Z,4.15
2022-10-23T00:14:58.321Z,4.32
2022-10-23T00:20:06.244Z,3.75
2022-10-23T00:25:12.517Z,3.92
2022-10-23T00:30:17.634Z,3.58
2022-10-23T00:35:25.412Z,4.00
2022-10-23T00:40:30.691Z,3.78
2022-10-23T00:45:36.588Z,3.80
2022-10-23T00:50:45.001Z,3.67
2022-10-23T00:55:53.343Z,3.83
2022-10-23T01:00:59.383Z,3.75
2022-10-23T01:06:14.373Z,3.28
2022-10-23T01:11:24.959Z,3.53
2022-10-23T01:16:37.916Z,4.00
2022-10-23T01:21:52.910Z,4.00
2022-10-23T01:27:20.832Z,3.40
2022-10-23T01:32:35.475Z,2.65
2022-10-23T01:37:43.386Z,2.58
2022-10-23T01:42:51.420Z,2.75
2022-10-23T01:48:00.093Z,2.72
2022-10-23T01:53:07.070Z,2.88
2022-10-23T01:58:13.099Z,3.20
2022-10-23T02:03:21.679Z,2.90
2022-10-23T02:08:27.250Z,2.55
2022-10-23T02:13:37.144Z,2.70
2022-10-23T02:18:51.804Z,2.65
2022-10-23T02:23:59.930Z,2.90
2022-10-23T02:29:08.826Z,2.70
2022-10-23T02:34:16.697Z,3.17
2022-10-23T02:39:21.767Z,4.38
2022-10-23T02:44:35.250Z,4.30
2022-10-23T02:49:47.826Z,5.43
2022-10-23T02:55:06.731Z,4.88
2022-10-23T03:00:14.498Z,5.68
2022-10-23T03:05:25.510Z,7.07
2022-10-23T03:10:30.640Z,6.30
2022-10-23T03:15:35.748Z,7.22
2022-10-23T03:20:43.590Z,7.03
2022-10-23T03:25:48.741Z,8.25
2022-10-23T03:30:53.943Z,8.88
2022-10-23T03:36:01.691Z,8.23
2022-10-23T03:41:06.844Z,8.50
2022-10-23T03:46:13.230Z,9.13
2022-10-23T03:51:21.065Z,8.77
2022-10-23T03:56:26.196Z,9.60
2022-10-23T04:01:31.443Z,9.32
2022-10-23T04:06:39.279Z,9.32
2022-10-23T04:11:44.526Z,13.98
2022-10-23T04:16:49.610Z,10.07
2022-10-23T04:21:57.362Z,9.32
2022-10-23T04:27:02.420Z,9.95
2022-10-23T04:32:08.099Z,9.18
2022-10-23T04:37:15.867Z,8.98
2022-10-23T04:42:21.050Z,9.55
2022-10-23T04:47:26.218Z,9.77
2022-10-23T04:52:34.013Z,9.43
2022-10-23T04:57:39.189Z,10.18
2022-10-23T05:02:44.399Z,10.45
2022-10-23T05:07:52.495Z,10.90
2022-10-23T05:12:57.582Z,10.30
2022-10-23T05:18:07.287Z,10.43
2022-10-23T05:23:16.457Z,10.10
2022-10-23T05:28:21.555Z,10.87
2022-10-23T05:33:26.785Z,12.38
2022-10-23T05:38:36.611Z,11.85
2022-10-23T05:43:41.712Z,11.27
2022-10-23T05:48:47.140Z,10.85
2022-10-23T05:53:55.739Z,12.50
2022-10-23T05:59:00.913Z,11.05
2022-10-23T06:04:06.735Z,9.60
2022-10-23T06:09:14.871Z,10.20
2022-10-23T06:14:19.963Z,8.88
2022-10-23T06:19:25.040Z,10.70
2022-10-23T06:24:32.763Z,11.57
2022-10-23T06:29:37.876Z,10.07
2022-10-23T06:34:42.910Z,9.75
2022-10-23T06:39:50.608Z,8.75
2022-10-23T06:44:55.732Z,7.90
2022-10-23T06:50:00.863Z,9.15
2022-10-23T06:55:09.331Z,7.70
2022-10-23T07:00:16.291Z,9.93
2022-10-23T07:05:22.106Z,7.40
2022-10-23T07:10:30.054Z,7.03
2022-10-23T07:15:35.103Z,6.70
2022-10-23T07:20:40.204Z,7.28
2022-10-23T07:25:47.948Z,7.75
2022-10-23T07:30:59.755Z,7.65
2022-10-23T07:36:06.583Z,8.35
2022-10-23T07:41:15.648Z,9.30
2022-10-23T07:46:20.822Z,8.90
2022-10-23T07:51:25.996Z,12.27
2022-10-23T07:56:33.807Z,10.55
2022-10-23T08:01:42.728Z,12.75
2022-10-23T08:06:48.412Z,11.70
2022-10-23T08:11:56.106Z,9.73
2022-10-23T08:22:07.364Z,10.30
2022-10-23T08:27:15.049Z,9.75
2022-10-23T08:32:20.317Z,13.30
2022-10-23T08:37:25.594Z,8.27
2022-10-23T08:42:33.918Z,9.10
2022-10-23T08:47:42.726Z,8.63
2022-10-23T08:52:55.478Z,8.40
2022-10-23T08:58:07.334Z,9.02
2022-10-23T09:03:14.762Z,10.43
2022-10-23T09:08:32.111Z,10.65
2022-10-23T09:14:02.118Z,8.68
2022-10-23T09:19:15.309Z,11.18
2022-10-23T09:24:21.841Z,11.55
2022-10-23T09:29:32.103Z,11.88
2022-10-23T09:34:38.043Z,8.43
2022-10-23T09:39:43.137Z,8.38
2022-10-23T09:44:55.142Z,8.75
2022-10-23T09:50:00.600Z,8.68
2022-10-23T09:55:17.821Z,9.30
2022-10-23T10:00:27.674Z,8.60
2022-10-23T10:05:35.499Z,8.20
2022-10-23T10:10:43.309Z,10.77
2022-10-23T10:15:52.965Z,7.93
2022-10-23T10:21:06.144Z,12.55
2022-10-23T10:26:20.904Z,10.85
2022-10-23T10:31:34.548Z,40.05
2022-10-23T10:36:46.026Z,9.07
2022-10-23T10:41:57.779Z,7.38
2022-10-23T10:47:10.187Z,7.75
2022-10-23T10:52:21.863Z,6.28
2022-10-23T10:57:37.120Z,7.13
2022-10-23T11:02:50.123Z,6.53
2022-10-23T11:07:58.913Z,6.97
2022-10-23T11:13:04.168Z,7.07
2022-10-23T11:18:18.626Z,6.82
2022-10-23T11:23:51.320Z,6.68
2022-10-23T11:29:09.113Z,8.25
2022-10-23T11:34:51.025Z,18.02
2022-10-23T11:40:16.519Z,14.80
2022-10-23T11:45:36.040Z,17.55
2022-10-23T11:51:00.342Z,24.42
2022-10-23T11:56:28.282Z,25.20
2022-10-23T12:01:44.091Z,21.88
2022-10-23T12:06:53.569Z,15.48
2022-10-23T12:12:34.287Z,13.32
2022-10-23T12:17:41.134Z,11.93
2022-10-23T12:22:52.346Z,13.90
2022-10-23T12:28:04.716Z,14.25
2022-10-23T12:33:17.305Z,15.63
2022-10-23T12:38:23.775Z,16.05
2022-10-23T12:43:33.980Z,14.25
2022-10-23T12:48:39.201Z,13.90
2022-10-23T12:53:44.292Z,13.52
2022-10-23T12:58:54.239Z,13.85
2022-10-23T13:04:06.183Z,11.90
2022-10-23T13:09:21.246Z,13.98
2022-10-23T13:14:57.073Z,11.55
2022-10-23T13:20:12.515Z,10.85
2022-10-23T13:25:25.421Z,10.43
2022-10-23T13:30:35.581Z,9.80
2022-10-23T13:35:40.755Z,8.95
2022-10-23T13:40:45.796Z,7.95
2022-10-23T13:45:53.632Z,8.13
2022-10-23T13:51:02.516Z,7.60
2022-10-23T13:56:07.917Z,7.73
2022-10-23T14:01:22.791Z,8.18
2022-10-23T14:06:28.060Z,6.75
2022-10-23T14:11:33.066Z,6.50
2022-10-23T14:16:41.000Z,7.38
2022-10-23T14:21:46.123Z,7.38
2022-10-23T14:26:51.428Z,7.03
2022-10-23T14:31:59.276Z,7.70
2022-10-23T14:37:08.810Z,9.13
2022-10-23T14:42:14.328Z,8.05
2022-10-23T14:47:23.938Z,7.82
2022-10-23T14:52:29.122Z,6.70
2022-10-23T14:57:34.158Z,7.40
2022-10-23T15:02:42.268Z,6.47
2022-10-23T15:07:47.582Z,7.10
2022-10-23T15:12:52.664Z,7.40
2022-10-23T15:18:00.512Z,8.05
2022-10-23T15:23:05.607Z,9.02
2022-10-23T15:28:10.824Z,7.38
2022-10-23T15:33:19.918Z,8.50
2022-10-23T15:38:26.277Z,7.22
2022-10-23T15:43:31.383Z,7.05
2022-10-23T15:48:39.039Z,7.40
2022-10-23T15:53:44.359Z,9.02
2022-10-23T15:58:49.552Z,11.02
2022-10-23T16:03:57.366Z,7.55
2022-10-23T16:09:02.616Z,6.28
2022-10-23T16:14:08.096Z,6.18
2022-10-23T16:19:16.009Z,6.70
2022-10-23T16:24:21.031Z,7.22
2022-10-23T16:29:26.077Z,6.45
2022-10-23T16:34:33.761Z,6.78
2022-10-23T16:39:39.041Z,7.15
2022-10-23T16:44:50.270Z,8.52
2022-10-23T16:49:58.021Z,9.23
2022-10-23T16:55:03.086Z,7.28
2022-10-23T17:00:10.429Z,6.82
2022-10-23T17:05:20.506Z,7.13
2022-10-23T17:10:25.724Z,7.35
2022-10-23T17:15:32.867Z,7.95
2022-10-23T17:20:40.718Z,8.02
2022-10-23T17:25:45.952Z,7.88
2022-10-23T17:30:51.467Z,7.05
2022-10-23T17:35:59.919Z,7.18
2022-10-23T17:41:05.180Z,6.85
2022-10-23T17:46:11.978Z,7.07
2022-10-23T17:51:22.571Z,8.07
2022-10-23T17:56:30.245Z,8.18
2022-10-23T18:01:36.056Z,8.40
2022-10-23T18:06:45.587Z,8.23
2022-10-23T18:11:53.015Z,7.82
2022-10-23T18:16:58.064Z,8.52
2022-10-23T18:22:08.609Z,9.05
2022-10-23T18:27:13.909Z,8.07
2022-10-23T18:32:19.430Z,8.00
2022-10-23T18:37:31.798Z,7.93
2022-10-23T18:42:38.913Z,6.88
2022-10-23T18:47:44.236Z,6.82
2022-10-23T18:52:55.802Z,8.52
2022-10-23T18:58:01.328Z,7.22
2022-10-23T19:03:08.548Z,7.55
2022-10-23T19:08:16.619Z,8.23
2022-10-23T19:13:24.366Z,8.23
2022-10-23T19:18:29.525Z,8.35
2022-10-23T19:23:37.901Z,8.50
2022-10-23T19:28:45.737Z,8.32
2022-10-23T19:33:50.970Z,8.52
2022-10-23T19:38:58.815Z,9.13
2022-10-23T19:44:04.034Z,8.85
2022-10-23T19:49:09.526Z,9.45
2022-10-23T19:54:20.789Z,9.10
2022-10-23T19:59:28.336Z,9.23
2022-10-23T20:04:33.417Z,9.50
2022-10-23T20:09:41.326Z,8.68
2022-10-23T20:14:46.364Z,9.05
2022-10-23T20:19:52.828Z,10.30
2022-10-23T20:25:03.211Z,10.35
2022-10-23T20:30:09.346Z,10.48
2022-10-23T20:35:14.500Z,11.85
2022-10-23T20:40:22.301Z,11.93
2022-10-23T20:45:27.357Z,11.65
2022-10-23T20:50:32.509Z,10.70
2022-10-23T20:55:43.998Z,10.70
2022-10-23T21:00:49.259Z,9.85
2022-10-23T21:05:54.508Z,10.90
2022-10-23T21:11:02.464Z,9.55
2022-10-23T21:16:15.599Z,20.20
2022-10-23T21:21:27.893Z,9.18
2022-10-23T21:26:35.620Z,10.15
2022-10-23T21:31:43.666Z,11.57
2022-10-23T21:37:11.223Z,10.65
2022-10-23T21:42:17.611Z,12.70
2022-10-23T21:47:22.748Z,15.45
2022-10-23T21:52:27.792Z,16.88
2022-10-23T21:57:36.038Z,19.38
2022-10-23T22:02:41.325Z,21.05
2022-10-23T22:07:49.855Z,22.38
2022-10-23T22:12:57.594Z,23.67
2022-10-23T22:18:02.838Z,27.20
2022-10-23T22:23:07.913Z,31.58
2022-10-23T22:28:15.570Z,31.73
2022-10-23T22:33:20.595Z,29.83
2022-10-23T22:38:25.875Z,25.55
2022-10-23T22:43:33.811Z,24.35
2022-10-23T22:48:49.529Z,22.58
2022-10-23T22:53:54.595Z,19.33
2022-10-23T22:59:02.344Z,17.10
2022-10-23T23:04:14.007Z,14.63
2022-10-23T23:09:24.614Z,14.65
2022-10-23T23:14:32.214Z,13.50
2022-10-23T23:19:37.690Z,11.32
2022-10-23T23:24:42.804Z,10.90
2022-10-23T23:29:50.438Z,9.63
2022-10-23T23:34:55.542Z,8.93
2022-10-23T23:40:00.661Z,10.07
2022-10-23T23:45:14.626Z,10.55
2022-10-23T23:50:20.399Z,9.27
2022-10-23T23:55:25.386Z,9.65
